Time;durP1;ratioP1;P1;durP2;ratioP2;P2;SDS_P1;SDS_P2;PMS_P1;PMS_P2;Temp;Humidity;BMP_temperature;BMP_pressure;BME280_temperature;BME280_humidity;BME280_pressure;Samples;Min_cycle;Max_cycle;Signal;HPM_P1;HPM_P2
2021/10/22 00:02:18;;;;;;;25.10;13.23;;;;;;;15.53;93.46;98800.03;5098400;28;20072;-94
2021/10/22 00:04:44;;;;;;;29.35;12.45;;;;;;;15.55;93.29;98794.59;5096663;28;20057;-95
2021/10/22 00:07:10;;;;;;;27.45;13.65;;;;;;;15.62;92.72;98798.72;5090681;28;20033;-94
2021/10/22 00:09:36;;;;;;;29.40;13.68;;;;;;;15.54;93.21;98796.38;5077115;28;20045;-95
2021/10/22 00:12:03;;;;;;;30.67;13.20;;;;;;;15.49;93.26;98781.47;5089096;28;20045;-95
2021/10/22 00:14:30;;;;;;;26.85;13.05;;;;;;;15.61;93.10;98815.72;5079098;28;20498;-94
2021/10/22 00:16:56;;;;;;;25.65;12.77;;;;;;;15.54;92.96;98795.53;5074842;28;20076;-94
2021/10/22 00:19:22;;;;;;;21.38;13.00;;;;;;;15.52;92.61;98795.59;5083127;28;20052;-96
2021/10/22 00:21:49;;;;;;;24.35;12.98;;;;;;;15.56;92.38;98797.19;5066522;28;20044;-94
2021/10/22 00:24:15;;;;;;;25.98;12.38;;;;;;;15.57;91.91;98781.97;5084066;28;20044;-95
2021/10/22 00:26:41;;;;;;;28.45;14.15;;;;;;;15.62;91.42;98782.63;5077385;28;20045;-94
2021/10/22 00:29:07;;;;;;;22.27;12.60;;;;;;;15.59;91.86;98790.81;5063453;28;20068;-94
2021/10/22 00:31:34;;;;;;;23.38;13.35;;;;;;;15.60;92.01;98796.09;5073848;28;20056;-95
2021/10/22 00:34:00;;;;;;;22.55;13.82;;;;;;;15.59;92.00;98793.50;5083600;28;20044;-94
2021/10/22 00:36:26;;;;;;;24.75;13.10;;;;;;;15.55;92.28;98791.91;5080544;28;20486;-94
2021/10/22 00:38:52;;;;;;;29.00;13.55;;;;;;;15.56;92.22;98788.28;5063019;28;20094;-96
2021/10/22 00:41:18;;;;;;;27.00;13.05;;;;;;;15.62;91.37;98796.03;5071078;28;20059;-94
2021/10/22 00:43:46;;;;;;;28.38;13.73;;;;;;;15.60;91.71;98792.56;5081619;28;20049;-94
2021/10/22 00:46:12;;;;;;;20.65;11.85;;;;;;;15.54;91.86;98783.00;5082575;28;20051;-95
2021/10/22 00:48:40;;;;;;;21.38;11.88;;;;;;;15.61;91.70;98792.50;5082305;28;20048;-95
2021/10/22 00:51:12;;;;;;;24.60;11.83;;;;;;;15.53;91.78;98788.44;5074782;28;20079;-95
2021/10/22 00:53:39;;;;;;;25.95;12.52;;;;;;;15.54;92.21;98787.47;5081856;28;20100;-94
2021/10/22 00:56:06;;;;;;;22.25;12.73;;;;;;;15.55;92.38;98794.59;5066490;28;20044;-93
2021/10/22 00:58:33;;;;;;;25.92;12.43;;;;;;;15.61;92.41;98810.38;5064097;28;20041;-94
2021/10/22 01:01:00;;;;;;;23.65;13.38;;;;;;;15.50;92.87;98786.75;5062841;28;20045;-95
2021/10/22 01:03:26;;;;;;;24.63;12.55;;;;;;;15.50;92.85;98791.25;5078517;28;20498;-94
2021/10/22 01:05:53;;;;;;;23.67;12.38;;;;;;;15.39;92.85;98776.53;5081874;28;20055;-94
2021/10/22 01:08:20;;;;;;;23.10;12.93;;;;;;;15.48;93.04;98777.03;5068545;28;20077;-93
2021/10/22 01:10:47;;;;;;;27.17;13.45;;;;;;;15.42;93.21;98783.59;5078389;28;20097;-94
2021/10/22 01:13:13;;;;;;;27.20;13.27;;;;;;;15.44;93.11;98792.41;5070671;28;20068;-95
2021/10/22 01:15:39;;;;;;;23.88;13.68;;;;;;;15.40;93.23;98778.28;5068996;28;20041;-94
2021/10/22 01:18:06;;;;;;;22.42;13.07;;;;;;;15.39;93.39;98778.34;5078306;28;20041;-93
2021/10/22 01:20:37;;;;;;;26.60;13.18;;;;;;;15.31;93.70;98769.78;5081086;28;20112;-95
2021/10/22 01:23:03;;;;;;;27.85;12.88;;;;;;;15.39;93.66;98784.56;5081966;28;20059;-94
2021/10/22 01:25:29;;;;;;;28.08;13.60;;;;;;;15.37;93.98;98774.88;5080581;28;20037;-94
2021/10/22 01:27:56;;;;;;;24.40;12.95;;;;;;;15.27;93.92;98754.81;5081268;28;20041;-93
2021/10/22 01:30:24;;;;;;;25.60;13.00;;;;;;;15.16;94.18;98744.59;5080950;28;20139;-94
2021/10/22 01:32:52;;;;;;;22.83;13.63;;;;;;;15.34;93.89;98758.94;5070074;28;20052;-93
2021/10/22 01:35:19;;;;;;;24.25;13.43;;;;;;;15.32;93.95;98761.69;5083034;28;20284;-94
2021/10/22 01:37:48;;;;;;;23.75;13.18;;;;;;;15.15;93.93;98737.50;5081888;28;20083;-96
2021/10/22 01:40:14;;;;;;;28.00;13.73;;;;;;;15.19;94.48;98744.44;5082277;28;20044;-93
2021/10/22 01:42:40;;;;;;;24.55;12.50;;;;;;;15.06;94.41;98724.53;5077763;28;20072;-95
2021/10/22 01:45:08;;;;;;;23.98;12.68;;;;;;;15.01;94.87;98711.34;5078414;28;20076;-94
2021/10/22 01:47:34;;;;;;;27.70;14.05;;;;;;;15.07;95.28;98729.84;5082167;28;20040;-95
2021/10/22 01:50:00;;;;;;;25.83;13.40;;;;;;;15.13;95.37;98745.59;5081780;28;20052;-94
2021/10/22 01:52:26;;;;;;;27.58;13.65;;;;;;;14.94;95.33;98713.44;5082031;28;20044;-95
2021/10/22 01:54:54;;;;;;;28.58;13.32;;;;;;;14.88;95.66;98716.41;5067067;28;20048;-94
2021/10/22 01:57:20;;;;;;;23.90;13.77;;;;;;;14.88;96.03;98708.38;5062229;28;20410;-95
2021/10/22 01:59:46;;;;;;;23.98;13.88;;;;;;;14.96;95.70;98722.28;5067529;28;20045;-95
2021/10/22 02:02:12;;;;;;;24.38;13.32;;;;;;;14.99;95.31;98718.59;5082172;28;20045;-95
2021/10/22 02:04:38;;;;;;;24.45;13.30;;;;;;;15.25;94.68;98748.66;5081948;28;20048;-95
2021/10/22 02:07:04;;;;;;;24.25;13.80;;;;;;;15.19;93.83;98729.25;5078749;28;20186;-95
2021/10/22 02:09:30;;;;;;;23.25;12.82;;;;;;;15.26;93.73;98721.78;5066270;28;20090;-95
2021/10/22 02:11:58;;;;;;;27.45;13.38;;;;;;;15.24;93.16;98714.75;5081723;28;20044;-95
2021/10/22 02:14:24;;;;;;;29.23;13.70;;;;;;;15.27;92.66;98714.63;5071549;28;20115;-95
2021/10/22 02:16:50;;;;;;;24.98;12.05;;;;;;;15.27;92.84;98710.16;5081078;28;20541;-95
2021/10/22 02:19:16;;;;;;;20.58;12.35;;;;;;;15.35;92.67;98716.00;5066143;28;20083;-95
2021/10/22 02:21:42;;;;;;;20.67;12.38;;;;;;;15.36;92.68;98723.09;5064426;28;20052;-93
2021/10/22 02:24:08;;;;;;;23.30;13.10;;;;;;;15.38;92.39;98734.63;5081155;28;20175;-94
2021/10/22 02:26:34;;;;;;;22.90;11.77;;;;;;;15.27;92.15;98703.94;5082461;28;20040;-94
2021/10/22 02:29:02;;;;;;;23.15;12.40;;;;;;;15.40;91.49;98715.78;5062431;28;20103;-96
2021/10/22 02:31:28;;;;;;;20.58;12.70;;;;;;;15.35;91.16;98710.66;5068153;28;20082;-93
2021/10/22 02:33:54;;;;;;;21.85;11.55;;;;;;;15.40;90.53;98710.44;5071825;28;20045;-92
2021/10/22 02:36:21;;;;;;;23.35;12.38;;;;;;;15.46;90.00;98719.97;5074667;28;20079;-93
2021/10/22 02:38:47;;;;;;;21.42;12.07;;;;;;;15.64;88.50;98735.19;5082390;28;20071;-95
2021/10/22 02:41:13;;;;;;;19.33;11.77;;;;;;;15.51;88.49;98712.59;5067155;28;20045;-93
2021/10/22 02:43:39;;;;;;;18.48;11.75;;;;;;;15.54;88.52;98717.81;5061272;28;20048;-94
2021/10/22 02:46:07;;;;;;;23.00;12.55;;;;;;;15.66;88.56;98737.78;5066140;28;20517;-94
2021/10/22 02:48:33;;;;;;;24.83;11.32;;;;;;;15.66;88.71;98744.03;5077300;28;20100;-94
2021/10/22 02:50:59;;;;;;;19.75;11.32;;;;;;;15.52;88.85;98720.53;5081480;28;20072;-95
2021/10/22 02:53:25;;;;;;;23.13;12.23;;;;;;;15.53;89.08;98721.44;5072630;28;20076;-95
2021/10/22 02:55:51;;;;;;;22.05;11.98;;;;;;;15.52;89.86;98730.41;5061002;28;20071;-94
2021/10/22 02:58:17;;;;;;;26.80;12.73;;;;;;;15.54;90.07;98731.19;5061088;28;20041;-95
2021/10/22 03:00:43;;;;;;;26.02;12.27;;;;;;;15.59;89.92;98755.97;5061595;28;20132;-95
2021/10/22 03:03:11;;;;;;;21.80;12.32;;;;;;;15.51;89.29;98750.97;5061268;28;20045;-94
2021/10/22 03:05:37;;;;;;;22.23;12.20;;;;;;;15.63;89.35;98767.41;5061668;28;20048;-95
2021/10/22 03:08:03;;;;;;;24.10;12.68;;;;;;;15.57;89.51;98760.53;5061971;28;20494;-94
2021/10/22 03:10:29;;;;;;;21.55;12.82;;;;;;;15.64;88.97;98762.00;5062109;28;20064;-95
2021/10/22 03:12:56;;;;;;;27.40;12.13;;;;;;;15.55;89.75;98752.56;5063011;28;20049;-95
2021/10/22 03:15:22;;;;;;;28.35;13.40;;;;;;;15.60;90.45;98768.44;5061324;28;20067;-95
2021/10/22 03:17:47;;;;;;;24.27;12.55;;;;;;;15.50;91.20;98746.53;5056876;28;20044;-95
2021/10/22 03:20:15;;;;;;;25.65;13.05;;;;;;;15.47;92.14;98764.59;5054938;28;20045;-95
2021/10/22 03:22:41;;;;;;;26.65;13.02;;;;;;;15.35;93.73;98776.75;5054854;28;20045;-96
2021/10/22 03:25:08;;;;;;;27.15;13.27;;;;;;;15.19;94.52;98747.13;5056013;28;20037;-95
2021/10/22 03:27:34;;;;;;;23.73;12.60;;;;;;;15.16;95.44;98752.66;5055975;28;20490;-95
2021/10/22 03:30:00;;;;;;;30.38;13.98;;;;;;;15.18;95.56;98775.72;5056342;28;20107;-95
2021/10/22 03:32:26;;;;;;;26.80;14.65;;;;;;;15.04;97.81;98771.94;5065831;28;20052;-93
2021/10/22 03:34:52;;;;;;;28.17;14.30;;;;;;;14.97;98.30;98761.50;5067607;28;20049;-94
2021/10/22 03:37:20;;;;;;;26.55;14.80;;;;;;;15.06;98.30;98781.63;5064871;28;20128;-95
2021/10/22 03:39:46;;;;;;;28.27;13.95;;;;;;;15.06;97.86;98787.00;5068348;28;20486;-94
2021/10/22 03:42:11;;;;;;;23.67;13.73;;;;;;;14.95;97.52;98767.88;5068131;28;20089;-94
2021/10/22 03:44:37;;;;;;;26.63;14.70;;;;;;;14.99;98.00;98780.19;5059806;28;20040;-93
2021/10/22 03:47:04;;;;;;;24.83;14.30;;;;;;;14.84;98.66;98763.00;5058173;28;20037;-94
2021/10/22 03:49:30;;;;;;;28.05;14.93;;;;;;;14.93;99.33;98784.00;5060893;28;20048;-95
2021/10/22 03:51:56;;;;;;;26.65;14.95;;;;;;;14.80;98.87;98764.06;5059279;28;20079;-94
2021/10/22 03:54:23;;;;;;;27.73;14.90;;;;;;;14.85;99.44;98783.47;5076156;28;20029;-95
2021/10/22 03:56:49;;;;;;;29.48;15.20;;;;;;;14.76;100.00;98771.34;5067083;28;20040;-94
2021/10/22 04:02:24;;;;;;;31.10;15.23;;;;;;;14.68;100.00;98764.59;5174485;27;20379;-94
2021/10/22 04:04:50;;;;;;;25.00;15.10;;;;;;;14.69;100.00;98740.44;5174177;27;20038;-94
2021/10/22 04:07:16;;;;;;;24.75;14.60;;;;;;;14.73;100.00;98733.16;5174025;27;20039;-94
2021/10/22 04:09:41;;;;;;;31.58;17.13;;;;;;;14.74;100.00;98742.91;5174198;27;20497;-95
2021/10/22 04:12:07;;;;;;;31.17;17.08;;;;;;;14.69;100.00;98763.66;5174163;27;20539;-95
2021/10/22 04:14:33;;;;;;;31.80;16.33;;;;;;;14.63;100.00;98761.25;5174366;27;20384;-93
2021/10/22 04:16:59;;;;;;;34.00;16.13;;;;;;;14.65;100.00;98776.31;5173693;27;20391;-95
2021/10/22 04:19:27;;;;;;;34.10;16.10;;;;;;;14.63;100.00;98769.28;5175332;27;20039;-94
2021/10/22 04:21:53;;;;;;;29.85;16.05;;;;;;;14.64;100.00;98771.91;5175434;27;20038;-94
2021/10/22 04:24:18;;;;;;;29.92;15.48;;;;;;;14.56;100.00;98750.81;5175284;27;20564;-93
2021/10/22 04:26:45;;;;;;;30.90;16.48;;;;;;;14.63;100.00;98763.94;5173920;27;20057;-95
2021/10/22 04:29:11;;;;;;;32.17;16.20;;;;;;;14.39;100.00;98742.63;5174199;27;20499;-94
2021/10/22 04:31:37;;;;;;;30.58;15.82;;;;;;;14.32;100.00;98754.53;5174315;27;20031;-94
2021/10/22 04:34:03;;;;;;;29.05;15.25;;;;;;;14.30;100.00;98761.75;5173679;27;20056;-94
2021/10/22 04:36:31;;;;;;;35.38;16.40;;;;;;;14.11;100.00;98740.25;5173809;27;20038;-93
2021/10/22 04:41:58;;;;;;;28.90;15.25;;;;;;;14.20;100.00;98776.44;5092771;27;20374;-95
2021/10/22 04:44:26;;;;;;;28.88;15.55;;;;;;;14.06;100.00;98756.47;5091842;28;20131;-95
2021/10/22 04:46:52;;;;;;;29.42;15.68;;;;;;;14.14;100.00;98772.22;5091706;28;20036;-94
2021/10/22 04:49:18;;;;;;;26.73;15.98;;;;;;;14.12;100.00;98761.59;5092040;28;20040;-94
2021/10/22 04:51:44;;;;;;;23.95;14.82;;;;;;;14.18;100.00;98764.00;5092153;28;20047;-95
2021/10/22 04:54:09;;;;;;;31.08;15.50;;;;;;;14.13;100.00;98751.75;5091931;28;20146;-94
2021/10/22 04:56:35;;;;;;;33.30;15.75;;;;;;;14.00;100.00;98730.00;5091704;28;20072;-95
2021/10/22 04:59:03;;;;;;;32.40;16.13;;;;;;;14.11;100.00;98762.50;5091793;28;20506;-94
2021/10/22 05:01:29;;;;;;;32.85;15.90;;;;;;;13.98;100.00;98738.06;5092638;28;20071;-95
2021/10/22 05:03:55;;;;;;;29.58;15.65;;;;;;;14.00;100.00;98740.69;5095692;28;20157;-95
2021/10/22 05:06:21;;;;;;;32.85;16.33;;;;;;;14.01;100.00;98750.47;5092307;28;20139;-95
2021/10/22 05:08:47;;;;;;;33.53;15.70;;;;;;;14.01;100.00;98758.50;5093108;28;20131;-95
2021/10/22 05:11:13;;;;;;;33.20;16.70;;;;;;;14.08;100.00;98770.66;5092134;28;20040;-95
2021/10/22 05:13:39;;;;;;;29.45;15.80;;;;;;;14.01;100.00;98753.16;5091947;28;20048;-94
2021/10/22 05:16:07;;;;;;;32.00;15.98;;;;;;;13.93;100.00;98748.09;5091182;28;20048;-94
2021/10/22 05:18:32;;;;;;;30.10;15.45;;;;;;;13.99;100.00;98755.00;5090902;28;20127;-93
2021/10/22 05:20:58;;;;;;;31.75;15.10;;;;;;;13.95;100.00;98758.75;5090815;28;20585;-92
2021/10/22 05:23:24;;;;;;;27.77;14.93;;;;;;;14.01;100.00;98771.84;5091273;28;20068;-93
2021/10/22 05:25:50;;;;;;;28.75;15.43;;;;;;;13.86;100.00;98743.94;5091381;28;20052;-93
2021/10/22 05:28:16;;;;;;;30.00;15.70;;;;;;;13.96;100.00;98768.47;5091065;28;20071;-93
2021/10/22 05:30:42;;;;;;;29.67;15.27;;;;;;;13.94;100.00;98760.56;5093369;28;20409;-92
2021/10/22 05:33:16;;;;;;;29.40;14.98;;;;;;;13.97;100.00;98781.78;5097583;28;20046;-94
2021/10/22 05:35:42;;;;;;;28.45;14.32;;;;;;;13.97;100.00;98776.44;5084687;28;20066;-93
2021/10/22 05:38:08;;;;;;;29.25;14.60;;;;;;;13.94;100.00;98773.03;5097499;28;20082;-93
2021/10/22 05:40:35;;;;;;;24.98;13.68;;;;;;;13.97;100.00;98776.44;5092427;28;20048;-92
2021/10/22 05:43:02;;;;;;;26.13;14.13;;;;;;;13.91;100.00;98762.47;5091324;28;20048;-94
2021/10/22 05:45:27;;;;;;;26.30;14.07;;;;;;;14.00;100.00;98779.94;5090873;28;20436;-94
2021/10/22 05:47:53;;;;;;;26.15;13.85;;;;;;;13.89;100.00;98775.03;5091120;28;20070;-92
2021/10/22 05:50:25;;;;;;;24.80;14.38;;;;;;;13.92;100.00;98786.47;5091037;28;20071;-94
2021/10/22 05:52:52;;;;;;;27.17;14.50;;;;;;;13.92;100.00;98783.81;5079256;28;20068;-92
2021/10/22 05:55:21;;;;;;;26.08;14.48;;;;;;;14.08;100.00;98792.06;5077186;28;20115;-92
2021/10/22 05:57:48;;;;;;;33.08;15.77;;;;;;;14.18;100.00;98790.75;5076951;28;20053;-92
2021/10/22 06:00:17;;;;;;;28.63;15.25;;;;;;;14.11;100.00;98778.53;5075954;28;20491;-91
2021/10/22 06:02:44;;;;;;;26.58;14.32;;;;;;;14.07;100.00;98778.75;5078789;28;20047;-92
2021/10/22 06:05:11;;;;;;;25.02;13.20;;;;;;;14.02;100.00;98783.41;5079154;28;20094;-93
2021/10/22 06:07:42;;;;;;;21.38;13.25;;;;;;;14.05;100.00;98793.97;5070783;28;20102;-93
2021/10/22 06:10:08;;;;;;;21.75;13.73;;;;;;;13.99;100.00;98795.13;5076681;28;20094;-93
2021/10/22 06:12:38;;;;;;;25.10;14.75;;;;;;;13.97;100.00;98794.31;5076938;28;20051;-93
2021/10/22 06:15:05;;;;;;;23.65;13.80;;;;;;;13.95;100.00;98810.41;5076156;28;20058;-94
2021/10/22 06:17:31;;;;;;;29.52;14.13;;;;;;;13.82;100.00;98792.25;5078050;28;20066;-93
2021/10/22 06:20:01;;;;;;;22.92;13.05;;;;;;;13.80;100.00;98792.31;5077004;28;20037;-94
2021/10/22 06:25:29;;;;;;;26.48;14.43;;;;;;;13.76;100.00;98780.84;5114148;27;20392;-92
2021/10/22 06:27:55;;;;;;;24.95;13.88;;;;;;;13.87;100.00;98787.56;5112401;28;20044;-93
2021/10/22 06:30:21;;;;;;;22.70;12.80;;;;;;;13.96;100.00;98781.84;5111464;28;20356;-95
2021/10/22 06:32:51;;;;;;;20.48;11.95;;;;;;;14.12;100.00;98772.28;5111642;28;20093;-93
2021/10/22 06:35:22;;;;;;;25.55;12.88;;;;;;;14.14;100.00;98777.56;5112635;28;20512;-92
2021/10/22 06:37:49;;;;;;;24.67;11.77;;;;;;;14.13;98.72;98784.69;5112404;28;20059;-94
2021/10/22 06:40:15;;;;;;;29.00;13.50;;;;;;;13.98;99.46;98802.25;5111961;28;20140;-93
2021/10/22 06:42:43;;;;;;;24.13;13.93;;;;;;;13.92;100.00;98798.94;5111551;28;20036;-94
2021/10/22 06:45:10;;;;;;;25.98;13.68;;;;;;;13.98;100.00;98810.25;5110924;28;20131;-93
2021/10/22 06:47:36;;;;;;;25.00;13.27;;;;;;;13.89;100.00;98796.41;5111948;28;20044;-94
2021/10/22 06:50:02;;;;;;;24.55;13.07;;;;;;;13.82;100.00;98786.91;5113285;28;20089;-93
2021/10/22 06:52:28;;;;;;;22.92;13.45;;;;;;;13.95;100.00;98804.19;5112606;28;20489;-93
2021/10/22 06:54:53;;;;;;;22.25;12.68;;;;;;;13.95;100.00;98804.19;5113639;28;20040;-94
2021/10/22 06:57:19;;;;;;;29.63;13.57;;;;;;;13.96;100.00;98814.78;5113055;28;20043;-96
2021/10/22 06:59:47;;;;;;;23.48;14.15;;;;;;;14.02;100.00;98811.00;5113103;28;20050;-94
2021/10/22 07:02:12;;;;;;;23.92;12.90;;;;;;;14.13;100.00;98826.63;5112314;28;20068;-94
2021/10/22 07:04:47;;;;;;;26.73;13.73;;;;;;;14.17;100.00;98829.09;5112102;28;20067;-93
2021/10/22 07:10:12;;;;;;;28.38;14.55;;;;;;;14.17;100.00;98829.09;5104691;27;20422;-93
2021/10/22 07:12:37;;;;;;;25.40;14.95;;;;;;;14.20;100.00;98827.25;5071789;28;20526;-92
2021/10/22 07:15:05;;;;;;;30.92;15.25;;;;;;;14.18;100.00;98830.88;5070863;28;20048;-93
2021/10/22 07:17:31;;;;;;;26.63;14.65;;;;;;;14.23;100.00;98837.84;5072292;28;20028;-93
2021/10/22 07:19:57;;;;;;;29.35;15.02;;;;;;;14.31;100.00;98827.66;5072937;28;20140;-94
2021/10/22 07:22:30;;;;;;;25.40;14.32;;;;;;;14.23;100.00;98821.78;5072087;28;20071;-95
2021/10/22 07:24:56;;;;;;;24.00;13.95;;;;;;;14.33;100.00;98818.66;5074668;28;20098;-94
2021/10/22 07:27:24;;;;;;;24.98;13.57;;;;;;;14.32;100.00;98816.06;5074483;28;20127;-95
2021/10/22 07:29:50;;;;;;;20.48;12.30;;;;;;;14.41;98.56;98838.88;5074310;28;20045;-95
2021/10/22 07:32:16;;;;;;;21.98;12.57;;;;;;;14.41;98.41;98834.38;5073148;28;20033;-93
2021/10/22 07:34:42;;;;;;;20.75;13.48;;;;;;;14.57;98.34;98843.56;5071858;28;20079;-95
2021/10/22 07:37:08;;;;;;;21.63;12.25;;;;;;;14.71;94.57;98844.78;5072128;28;20495;-94
2021/10/22 07:39:34;;;;;;;25.92;13.18;;;;;;;14.76;95.78;98840.09;5071462;28;20060;-93
2021/10/22 07:42:01;;;;;;;20.42;12.30;;;;;;;14.77;96.12;98847.19;5071678;28;20098;-94
2021/10/22 07:44:29;;;;;;;20.60;11.82;;;;;;;14.74;94.22;98839.28;5071520;28;20123;-94
2021/10/22 07:46:57;;;;;;;26.58;12.07;;;;;;;14.75;94.71;98841.91;5071528;28;20037;-94
2021/10/22 07:49:23;;;;;;;23.02;12.52;;;;;;;14.79;95.68;98845.31;5071897;28;20037;-94
2021/10/22 07:51:49;;;;;;;19.40;11.55;;;;;;;14.89;95.66;98854.69;5071160;28;20041;-93
2021/10/22 07:54:15;;;;;;;18.70;11.23;;;;;;;14.97;94.35;98841.84;5072152;28;20049;-93
2021/10/22 07:56:44;;;;;;;20.92;11.70;;;;;;;14.93;93.05;98824.16;5070715;28;20048;-94
2021/10/22 07:59:09;;;;;;;;;;;;;;;15.13;92.49;98846.50;5071217;28;20116;-94
2021/10/22 08:01:37;;;;;;;22.13;12.55;;;;;;;15.07;90.76;98834.28;5070420;28;19960;-94
2021/10/22 08:04:04;;;;;;;18.27;11.65;;;;;;;15.11;89.77;98848.38;5070895;28;20064;-95
2021/10/22 08:06:30;;;;;;;20.40;12.00;;;;;;;15.00;90.81;98820.25;5071013;28;20041;-94
2021/10/22 08:08:57;;;;;;;19.73;11.70;;;;;;;15.11;90.19;98825.13;5070142;28;20041;-94
2021/10/22 08:11:23;;;;;;;27.67;17.10;;;;;;;15.22;91.23;98851.44;5071107;28;20036;-94
2021/10/22 08:13:49;;;;;;;25.20;13.63;;;;;;;15.25;92.50;98835.25;5071446;28;20499;-94
2021/10/22 08:16:16;;;;;;;23.73;14.73;;;;;;;15.48;87.55;98850.28;5070385;28;20494;-93
2021/10/22 08:18:43;;;;;;;20.45;11.38;;;;;;;15.48;86.06;98825.28;5071034;28;20062;-94
2021/10/22 08:24:09;;;;;;;19.88;11.23;;;;;;;15.60;86.97;98838.13;5082140;27;20379;-94
2021/10/22 08:26:34;;;;;;;19.05;12.07;;;;;;;15.73;86.58;98838.47;5091761;28;20045;-95
2021/10/22 08:29:00;;;;;;;18.73;10.63;;;;;;;15.83;85.83;98837.09;5092101;28;20132;-93
2021/10/22 08:31:27;;;;;;;15.40;9.55;;;;;;;15.85;80.57;98826.28;5088784;28;20040;-94
2021/10/22 08:33:54;;;;;;;16.42;9.05;;;;;;;15.86;78.64;98841.44;5071412;28;20055;-94
2021/10/22 08:36:20;;;;;;;14.68;10.27;;;;;;;15.83;82.23;98845.13;5076503;28;20049;-92
2021/10/22 08:38:46;;;;;;;16.50;10.20;;;;;;;15.59;85.37;98848.00;5071419;28;20559;-95
2021/10/22 08:41:15;;;;;;;20.20;10.10;;;;;;;15.33;84.80;98841.16;5071339;28;20558;-96
2021/10/22 08:43:41;;;;;;;23.13;10.07;;;;;;;15.31;85.62;98855.53;5071404;28;20090;-94
2021/10/22 08:46:11;;;;;;;17.15;10.60;;;;;;;15.20;89.95;98834.56;5071560;28;20049;-93
2021/10/22 08:48:38;;;;;;;17.98;10.55;;;;;;;15.12;89.79;98848.31;5071567;28;20048;-93
2021/10/22 08:51:04;;;;;;;18.20;10.55;;;;;;;15.15;89.76;98842.81;5071136;28;20067;-93
2021/10/22 08:53:30;;;;;;;15.57;9.82;;;;;;;15.31;90.40;98845.69;5073674;28;20068;-93
2021/10/22 08:55:56;;;;;;;23.73;11.30;;;;;;;15.28;91.89;98826.22;5072871;28;20052;-93
2021/10/22 08:58:24;;;;;;;19.38;10.25;;;;;;;15.47;88.91;98835.16;5075520;28;20044;-94
2021/10/22 09:00:50;;;;;;;17.90;10.15;;;;;;;15.47;88.43;98836.97;5070399;28;20391;-93
2021/10/22 09:06:18;;;;;;;16.63;9.82;;;;;;;15.76;87.11;98844.53;5103780;27;20370;-93
2021/10/22 09:08:45;;;;;;;19.23;10.90;;;;;;;15.87;88.11;98840.47;5071228;28;20048;-92
2021/10/22 09:11:20;;;;;;;20.25;11.50;;;;;;;16.07;86.41;98850.25;5070802;28;20119;-93
2021/10/22 09:13:59;;;;;;;18.38;10.57;;;;;;;15.88;83.90;98834.19;5071182;28;20037;-93
2021/10/22 09:16:25;;;;;;;17.65;11.68;;;;;;;16.13;84.51;98848.13;5070250;28;20048;-92
2021/10/22 09:18:52;;;;;;;18.25;10.00;;;;;;;15.95;83.48;98838.31;5071322;28;20037;-94
2021/10/22 09:21:26;;;;;;;17.58;11.30;;;;;;;15.91;82.13;98848.31;5070798;28;20048;-91
2021/10/22 09:23:53;;;;;;;19.10;10.27;;;;;;;15.67;83.98;98852.97;5066468;28;20040;-93
2021/10/22 09:26:26;;;;;;;16.77;10.32;;;;;;;15.55;86.26;98853.56;5070104;28;20037;-92
2021/10/22 09:28:53;;;;;;;17.42;9.40;;;;;;;15.70;82.03;98860.00;5068849;28;20075;-93
2021/10/22 09:31:21;;;;;;;15.75;9.68;;;;;;;15.74;83.55;98851.81;5070072;28;20060;-93
2021/10/22 09:33:51;;;;;;;16.42;9.25;;;;;;;15.81;80.65;98845.19;5070499;28;20055;-91
2021/10/22 09:36:31;;;;;;;17.58;10.18;;;;;;;15.78;83.13;98850.69;5071275;28;20037;-92
2021/10/22 09:39:05;;;;;;;17.27;10.23;;;;;;;15.58;82.66;98838.19;5070215;28;20039;-91
2021/10/22 09:41:30;;;;;;;14.10;9.65;;;;;;;15.62;81.29;98846.97;5070197;28;20449;-90
2021/10/22 09:43:56;;;;;;;20.10;10.15;;;;;;;15.76;80.29;98846.34;5070256;28;20041;-92
2021/10/22 09:46:23;;;;;;;15.93;10.15;;;;;;;15.93;79.96;98845.56;5069458;28;20041;-92
2021/10/22 09:48:56;;;;;;;19.08;11.15;;;;;;;15.92;79.23;98855.44;5071675;28;20057;-91
2021/10/22 09:51:25;;;;;;;19.15;11.43;;;;;;;15.91;82.54;98847.44;5063548;28;20044;-94
2021/10/22 09:53:53;;;;;;;20.13;11.82;;;;;;;16.03;81.00;98849.53;5070738;28;20036;-92
2021/10/22 09:56:21;;;;;;;18.58;11.70;;;;;;;16.13;78.97;98828.50;5070577;28;20051;-96
2021/10/22 09:58:58;;;;;;;22.42;12.40;;;;;;;16.23;79.69;98845.88;5070935;28;20367;-93
2021/10/22 10:01:34;;;;;;;22.60;12.18;;;;;;;16.08;82.16;98835.91;5070284;28;20045;-94
2021/10/22 10:04:01;;;;;;;22.95;11.75;;;;;;;16.15;81.82;98840.88;5070148;28;20114;-95
2021/10/22 10:06:29;;;;;;;20.95;12.88;;;;;;;16.18;83.83;98834.53;5070714;28;20041;-95
2021/10/22 10:08:57;;;;;;;19.13;12.55;;;;;;;15.97;83.74;98823.00;5070453;28;20041;-92
2021/10/22 10:11:27;;;;;;;20.45;11.75;;;;;;;16.23;79.07;98832.47;5070791;28;20044;-93
2021/10/22 10:13:53;;;;;;;23.30;12.55;;;;;;;16.16;81.00;98844.47;5070490;28;20040;-92
2021/10/22 10:16:19;;;;;;;23.23;12.38;;;;;;;15.98;81.58;98838.16;5063954;28;20048;-93
2021/10/22 10:18:49;;;;;;;22.45;13.85;;;;;;;16.12;82.04;98849.09;5057491;28;20036;-93
2021/10/22 10:21:19;;;;;;;16.02;11.38;;;;;;;16.02;79.89;98818.28;5058058;28;20128;-93
2021/10/22 10:23:46;;;;;;;26.05;15.30;;;;;;;16.07;81.47;98818.94;5058301;28;20503;-93
2021/10/22 10:26:27;;;;;;;22.02;13.18;;;;;;;16.11;81.94;98828.59;5057787;28;20048;-95
2021/10/22 10:28:54;;;;;;;24.50;13.60;;;;;;;16.14;81.11;98836.47;5057553;28;20052;-94
2021/10/22 10:31:29;;;;;;;20.15;12.85;;;;;;;15.99;81.35;98829.19;5057227;28;20049;-93
2021/10/22 10:33:55;;;;;;;23.73;13.25;;;;;;;16.20;81.42;98830.81;5049410;28;20041;-94
2021/10/22 10:36:44;;;;;;;28.65;13.80;;;;;;;16.21;82.16;98855.81;5056719;28;20076;-93
2021/10/22 10:39:09;;;;;;;26.63;15.15;;;;;;;16.14;81.89;98836.47;5037450;28;20041;-93
2021/10/22 10:41:37;;;;;;;24.38;14.77;;;;;;;16.38;81.66;98847.81;5037307;28;20403;-94
2021/10/22 10:44:32;;;;;;;28.73;16.40;;;;;;;16.52;83.01;98846.25;5039346;28;20076;-93
2021/10/22 10:46:59;;;;;;;24.88;13.05;;;;;;;16.45;80.60;98821.53;5056761;28;20104;-93
2021/10/22 10:49:58;;;;;;;20.80;12.13;;;;;;;16.48;80.70;98816.03;5056995;28;20099;-93
2021/10/22 10:52:54;;;;;;;25.50;15.95;;;;;;;16.39;80.68;98808.41;5053501;28;20131;-93
2021/10/22 10:58:23;;;;;;;25.77;16.48;;;;;;;16.14;81.95;98809.66;5153925;27;20374;-93
2021/10/22 11:00:52;;;;;;;28.38;16.38;;;;;;;16.09;83.04;98824.22;5153517;27;20318;-94
2021/10/22 11:03:19;;;;;;;;;;;;;;;15.98;84.09;98820.28;5153976;27;20122;-93
2021/10/22 11:06:02;;;;;;;22.95;14.23;;;;;;;15.88;83.50;98812.75;5153426;27;20014;-92
2021/10/22 11:08:38;;;;;;;24.13;13.95;;;;;;;15.84;85.18;98808.47;5148202;27;20115;-93
2021/10/22 11:14:21;;;;;;;19.58;11.50;;;;;;;15.75;85.43;98807.94;5153451;27;20863;-93
2021/10/22 11:16:55;;;;;;;20.73;11.25;;;;;;;15.78;86.71;98789.03;5149868;27;20082;-94
2021/10/22 11:19:24;;;;;;;20.38;12.35;;;;;;;15.77;89.40;98779.25;5153732;27;20507;-93
2021/10/22 11:21:52;;;;;;;21.70;12.52;;;;;;;15.86;90.47;98798.53;5153547;27;20126;-94
2021/10/22 11:24:20;;;;;;;19.60;11.68;;;;;;;15.93;90.04;98794.59;5153245;27;20088;-93
2021/10/22 11:26:53;;;;;;;21.25;12.65;;;;;;;15.99;90.96;98805.03;5149814;27;20109;-93
2021/10/22 11:29:22;;;;;;;22.77;12.65;;;;;;;16.11;90.65;98809.81;5153145;27;20484;-93
2021/10/22 11:31:49;;;;;;;;;;;;;;;16.30;91.27;98811.56;5153866;27;20043;-94
2021/10/22 11:34:17;;;;;;;19.83;12.80;;;;;;;16.39;91.85;98803.06;5153974;27;19919;-94
2021/10/22 11:36:58;;;;;;;19.73;12.95;;;;;;;16.63;89.13;98803.63;5153956;27;20096;-95
2021/10/22 11:39:25;;;;;;;22.38;15.30;;;;;;;16.45;89.29;98783.97;5153424;27;20492;-94
2021/10/22 11:42:22;;;;;;;24.77;13.27;;;;;;;16.43;90.34;98799.28;5154155;27;20041;-94
2021/10/22 11:44:52;;;;;;;22.63;13.68;;;;;;;16.34;87.29;98779.13;5151686;27;20046;-95